Time;durP1;ratioP1;P1;durP2;ratioP2;P2;SDS_P1;SDS_P2;PMS_P1;PMS_P2;Temp;Humidity;BMP_temperature;BMP_pressure;BME280_temperature;BME280_humidity;BME280_pressure;Samples;Min_cycle;Max_cycle;Signal;HPM_P1;HPM_P2
2020/12/04 00:02:16;;;;;;;3.08;0.80;;;;;;;;;;4346450;33;20107;-93
2020/12/04 00:04:45;;;;;;;1.75;0.68;;;;;;;;;;4361002;32;20547;-96
2020/12/04 00:07:13;;;;;;;0.95;0.70;;;;;;;;;;4363353;32;20047;-96
2020/12/04 00:09:44;;;;;;;3.33;0.80;;;;;;;;;;4349753;33;20155;-96
2020/12/04 00:12:12;;;;;;;0.60;0.60;;;;;;;;;;4350013;33;20098;-96
2020/12/04 00:14:41;;;;;;;2.55;0.75;;;;;;;;;;4348163;32;20060;-95
2020/12/04 00:17:09;;;;;;;0.62;0.62;;;;;;;;;;4343158;33;20055;-94
2020/12/04 00:19:38;;;;;;;0.70;0.70;;;;;;;;;;4347288;32;20056;-96
2020/12/04 00:22:07;;;;;;;1.08;0.62;;;;;;;;;;4347063;32;21446;-94
2020/12/04 00:24:36;;;;;;;2.58;0.55;;;;;;;;;;4369060;32;20051;-94
2020/12/04 00:27:11;;;;;;;1.65;0.77;;;;;;;;;;4349388;33;20101;-93
2020/12/04 00:29:39;;;;;;;0.98;0.98;;;;;;;;;;4349065;33;20063;-95
2020/12/04 00:32:07;;;;;;;3.20;0.73;;;;;;;;;;4347285;33;20060;-96
2020/12/04 00:34:36;;;;;;;1.58;0.73;;;;;;;;;;4360330;32;20141;-95
2020/12/04 00:37:04;;;;;;;1.33;0.60;;;;;;;;;;4347765;33;20111;-95
2020/12/04 00:39:32;;;;;;;0.82;0.60;;;;;;;;;;4349104;33;20389;-96
2020/12/04 00:42:01;;;;;;;1.08;0.50;;;;;;;;;;4348651;32;20074;-96
2020/12/04 00:44:29;;;;;;;1.27;0.75;;;;;;;;;;4362574;32;20111;-95
2020/12/04 00:47:01;;;;;;;0.90;0.75;;;;;;;;;;4346436;33;20111;-95
2020/12/04 00:49:30;;;;;;;0.50;0.50;;;;;;;;;;4357684;32;20056;-94
2020/12/04 00:52:07;;;;;;;1.23;0.80;;;;;;;;;;4346013;33;20056;-94
2020/12/04 00:54:36;;;;;;;0.52;0.52;;;;;;;;;;4347559;33;20063;-94
2020/12/04 00:57:08;;;;;;;1.30;0.70;;;;;;;;;;4346495;32;20095;-93
2020/12/04 00:59:38;;;;;;;2.05;0.60;;;;;;;;;;4345384;33;20059;-94
2020/12/04 01:02:07;;;;;;;0.52;0.52;;;;;;;;;;4346513;33;20098;-94
2020/12/04 01:04:35;;;;;;;0.57;0.50;;;;;;;;;;4359587;32;20087;-94
2020/12/04 01:07:04;;;;;;;0.57;0.57;;;;;;;;;;4360196;32;20044;-95
2020/12/04 01:09:33;;;;;;;1.25;0.90;;;;;;;;;;4345040;32;20675;-95
2020/12/04 01:12:01;;;;;;;0.88;0.80;;;;;;;;;;4349961;32;20043;-96
2020/12/04 01:14:30;;;;;;;3.40;0.80;;;;;;;;;;4359769;32;20068;-96
2020/12/04 01:16:59;;;;;;;1.35;0.50;;;;;;;;;;4348141;33;20055;-96
2020/12/04 01:19:28;;;;;;;1.98;1.10;;;;;;;;;;4350245;32;20056;-95
2020/12/04 01:21:56;;;;;;;1.10;0.90;;;;;;;;;;4357669;32;20465;-95
2020/12/04 01:24:24;;;;;;;1.20;0.57;;;;;;;;;;4361875;32;20116;-95
2020/12/04 01:26:52;;;;;;;0.93;0.93;;;;;;;;;;4358783;32;20043;-95
2020/12/04 01:29:21;;;;;;;5.15;1.08;;;;;;;;;;4362021;32;20130;-96
2020/12/04 01:31:50;;;;;;;3.92;1.30;;;;;;;;;;4348699;33;20047;-96
2020/12/04 01:34:18;;;;;;;3.00;1.00;;;;;;;;;;4358057;32;20093;-96
2020/12/04 01:36:49;;;;;;;1.10;0.80;;;;;;;;;;4367784;32;20107;-96
2020/12/04 01:39:19;;;;;;;1.08;0.82;;;;;;;;;;4363321;32;20044;-95
2020/12/04 01:41:47;;;;;;;0.73;0.60;;;;;;;;;;4350467;32;20078;-95
2020/12/04 01:44:16;;;;;;;1.58;0.62;;;;;;;;;;4346816;32;20055;-94
2020/12/04 01:46:44;;;;;;;0.57;0.52;;;;;;;;;;4352268;32;20077;-96
2020/12/04 01:49:17;;;;;;;2.05;0.90;;;;;;;;;;4360892;32;20047;-95
2020/12/04 01:51:47;;;;;;;0.57;0.57;;;;;;;;;;4346326;33;20094;-96
2020/12/04 01:54:16;;;;;;;11.75;1.33;;;;;;;;;;4346840;32;20059;-93
2020/12/04 01:56:50;;;;;;;2.15;0.98;;;;;;;;;;4358601;32;20452;-94
2020/12/04 01:59:18;;;;;;;1.08;0.93;;;;;;;;;;4342954;32;20043;-95
2020/12/04 02:01:48;;;;;;;1.70;1.00;;;;;;;;;;4343002;33;20110;-96
2020/12/04 02:04:17;;;;;;;1.45;0.88;;;;;;;;;;4358367;32;20067;-96
2020/12/04 02:06:45;;;;;;;1.00;0.80;;;;;;;;;;4347101;33;20129;-95
2020/12/04 02:09:19;;;;;;;2.12;0.82;;;;;;;;;;4345536;33;20083;-96
2020/12/04 02:11:48;;;;;;;;;;;;;;;;;;4346887;33;20048;-96
2020/12/04 02:14:17;;;;;;;2.20;0.98;;;;;;;;;;4356465;32;19954;-96
2020/12/04 02:16:46;;;;;;;0.90;0.70;;;;;;;;;;4345962;33;20111;-95
2020/12/04 02:19:15;;;;;;;1.35;1.20;;;;;;;;;;4338322;32;20145;-96
2020/12/04 02:21:43;;;;;;;3.17;1.10;;;;;;;;;;4356900;32;20078;-95
2020/12/04 02:24:12;;;;;;;0.95;0.80;;;;;;;;;;4359923;33;20372;-96
2020/12/04 02:26:44;;;;;;;1.95;1.12;;;;;;;;;;4347319;33;20135;-96
2020/12/04 02:29:16;;;;;;;0.73;0.70;;;;;;;;;;4350200;33;20162;-96
2020/12/04 02:31:47;;;;;;;1.75;0.80;;;;;;;;;;4364419;32;20502;-96
2020/12/04 02:34:18;;;;;;;2.05;0.80;;;;;;;;;;4369937;32;20499;-96
2020/12/04 02:36:48;;;;;;;2.47;0.80;;;;;;;;;;4353838;32;20047;-96
2020/12/04 02:39:17;;;;;;;5.87;0.80;;;;;;;;;;4360502;32;20028;-96
2020/12/04 02:41:47;;;;;;;1.15;0.70;;;;;;;;;;4362879;32;20117;-96
2020/12/04 02:44:17;;;;;;;5.25;0.82;;;;;;;;;;4364329;32;20032;-96
2020/12/04 02:46:49;;;;;;;1.17;0.82;;;;;;;;;;4370893;32;20095;-96
2020/12/04 02:49:20;;;;;;;3.62;0.85;;;;;;;;;;4375372;32;20062;-96
2020/12/04 02:51:52;;;;;;;1.08;0.88;;;;;;;;;;4375493;32;20082;-95
2020/12/04 02:54:23;;;;;;;0.75;0.70;;;;;;;;;;4366543;32;20060;-96
2020/12/04 02:56:51;;;;;;;1.50;1.12;;;;;;;;;;4342977;33;20055;-96
2020/12/04 02:59:30;;;;;;;1.08;0.73;;;;;;;;;;4351659;32;20040;-96
2020/12/04 03:02:03;;;;;;;1.67;0.62;;;;;;;;;;4361707;32;20048;-96
2020/12/04 03:04:32;;;;;;;2.97;1.02;;;;;;;;;;4347216;33;20052;-96
2020/12/04 03:07:03;;;;;;;1.55;0.82;;;;;;;;;;4355907;33;20051;-96
2020/12/04 03:09:34;;;;;;;3.95;1.12;;;;;;;;;;4370047;32;20137;-96
2020/12/04 03:12:06;;;;;;;1.27;0.85;;;;;;;;;;4366040;32;20059;-96
2020/12/04 03:14:38;;;;;;;1.48;0.80;;;;;;;;;;4354552;33;20089;-96
2020/12/04 03:17:10;;;;;;;3.03;0.85;;;;;;;;;;4362070;32;20055;-96
2020/12/04 03:19:39;;;;;;;2.00;0.60;;;;;;;;;;4349289;33;20102;-95
2020/12/04 03:22:08;;;;;;;0.70;0.70;;;;;;;;;;4363324;32;20397;-96
2020/12/04 03:24:38;;;;;;;0.77;0.62;;;;;;;;;;4350037;33;20122;-95
2020/12/04 03:27:07;;;;;;;13.30;12.43;;;;;;;;;;4353188;33;20055;-96
2020/12/04 03:29:36;;;;;;;15.65;14.95;;;;;;;;;;4350028;32;20063;-95
2020/12/04 03:32:09;;;;;;;28.10;26.60;;;;;;;;;;4352851;32;20168;-96
2020/12/04 03:34:37;;;;;;;31.65;30.05;;;;;;;;;;4360150;32;20087;-95
2020/12/04 03:37:06;;;;;;;14.00;13.25;;;;;;;;;;4346961;32;20081;-93
2020/12/04 03:39:35;;;;;;;24.50;23.30;;;;;;;;;;4347905;33;20161;-95
2020/12/04 03:42:04;;;;;;;0.55;0.55;;;;;;;;;;4347191;33;20082;-95
2020/12/04 03:44:32;;;;;;;1.20;0.90;;;;;;;;;;4347982;32;20095;-96
2020/12/04 03:47:01;;;;;;;0.80;0.80;;;;;;;;;;4344361;33;20052;-95
2020/12/04 03:49:29;;;;;;;1.67;1.00;;;;;;;;;;4342140;33;20067;-95
2020/12/04 03:51:57;;;;;;;1.12;0.65;;;;;;;;;;4347087;33;20064;-95
2020/12/04 03:54:26;;;;;;;0.60;0.55;;;;;;;;;;4362663;32;20055;-96
2020/12/04 03:56:54;;;;;;;0.55;0.55;;;;;;;;;;4352376;33;20121;-95
2020/12/04 03:59:23;;;;;;;1.00;0.75;;;;;;;;;;4360954;32;20055;-95
2020/12/04 04:01:51;;;;;;;1.05;0.70;;;;;;;;;;4358636;32;20076;-95
2020/12/04 04:04:20;;;;;;;5.12;1.23;;;;;;;;;;4347449;33;20072;-96
2020/12/04 04:06:48;;;;;;;1.20;0.62;;;;;;;;;;4347429;33;20109;-95
2020/12/04 04:09:16;;;;;;;0.80;0.80;;;;;;;;;;4347433;32;20059;-94
2020/12/04 04:11:45;;;;;;;3.15;0.68;;;;;;;;;;4350313;33;20774;-96
2020/12/04 04:14:13;;;;;;;0.88;0.70;;;;;;;;;;4390209;27;20446;-77
2020/12/04 04:16:42;;;;;;;0.50;0.50;;;;;;;;;;4412248;32;20395;-76
2020/12/04 04:19:11;;;;;;;4.95;1.00;;;;;;;;;;4411556;32;20128;-77
2020/12/04 04:21:39;;;;;;;1.42;0.90;;;;;;;;;;4411341;32;20055;-77
2020/12/04 04:24:07;;;;;;;2.67;0.70;;;;;;;;;;4405667;32;20148;-78
2020/12/04 04:26:37;;;;;;;1.62;0.70;;;;;;;;;;4405665;32;20104;-77
2020/12/04 04:29:06;;;;;;;4.22;0.65;;;;;;;;;;4407101;32;20068;-77
2020/12/04 04:31:34;;;;;;;2.10;0.75;;;;;;;;;;4409939;32;20108;-77
2020/12/04 04:34:03;;;;;;;1.20;0.77;;;;;;;;;;4408345;32;20046;-78
2020/12/04 04:36:31;;;;;;;2.03;0.70;;;;;;;;;;4411357;32;20106;-76
2020/12/04 04:38:59;;;;;;;2.30;0.70;;;;;;;;;;4407221;32;20068;-77
2020/12/04 04:41:28;;;;;;;0.98;0.60;;;;;;;;;;4406951;32;20542;-77
2020/12/04 04:43:57;;;;;;;0.40;0.40;;;;;;;;;;4406701;32;20125;-77
2020/12/04 04:46:28;;;;;;;1.02;0.80;;;;;;;;;;4403725;32;20161;-77
2020/12/04 04:48:59;;;;;;;1.33;0.70;;;;;;;;;;4406918;32;20067;-76
2020/12/04 04:51:27;;;;;;;3.65;0.80;;;;;;;;;;4411669;32;20080;-78
2020/12/04 04:53:58;;;;;;;0.90;0.60;;;;;;;;;;4413919;32;20400;-76
2020/12/04 04:56:26;;;;;;;0.82;0.43;;;;;;;;;;4407807;32;20102;-77
2020/12/04 04:58:55;;;;;;;0.60;0.60;;;;;;;;;;4412228;32;20066;-77
2020/12/04 05:01:23;;;;;;;0.80;0.50;;;;;;;;;;4410107;32;20058;-78
2020/12/04 05:03:55;;;;;;;2.85;0.80;;;;;;;;;;4411280;32;20069;-78
2020/12/04 05:06:37;;;;;;;1.65;0.60;;;;;;;;;;4402498;32;20161;-77
2020/12/04 05:09:06;;;;;;;0.80;0.50;;;;;;;;;;4411885;32;20101;-77
2020/12/04 05:11:36;;;;;;;0.70;0.70;;;;;;;;;;4412386;32;20190;-76
2020/12/04 05:14:14;;;;;;;1.35;0.80;;;;;;;;;;4412262;32;20365;-77
2020/12/04 05:16:46;;;;;;;0.60;0.60;;;;;;;;;;4402773;32;20106;-77
2020/12/04 05:19:15;;;;;;;3.20;0.60;;;;;;;;;;4415468;32;20400;-77
2020/12/04 05:21:44;;;;;;;0.88;0.68;;;;;;;;;;4410632;32;20411;-78
2020/12/04 05:24:12;;;;;;;0.70;0.70;;;;;;;;;;4408810;32;20058;-78
2020/12/04 05:26:41;;;;;;;0.80;0.80;;;;;;;;;;4405873;32;20069;-77
2020/12/04 05:29:10;;;;;;;1.98;0.80;;;;;;;;;;4410376;32;20049;-78
2020/12/04 05:31:38;;;;;;;3.55;0.75;;;;;;;;;;4413561;32;20050;-77
2020/12/04 05:34:22;;;;;;;0.80;0.80;;;;;;;;;;4413226;32;20123;-78
2020/12/04 05:36:51;;;;;;;1.52;0.90;;;;;;;;;;4412956;32;20081;-77
2020/12/04 05:39:19;;;;;;;5.20;4.72;;;;;;;;;;4413504;32;20070;-76
2020/12/04 05:41:48;;;;;;;3.67;0.82;;;;;;;;;;4409398;32;20057;-77
2020/12/04 05:44:17;;;;;;;0.70;0.70;;;;;;;;;;4411399;32;20141;-77
2020/12/04 05:46:53;;;;;;;1.10;0.60;;;;;;;;;;4412015;32;20123;-77
2020/12/04 05:49:22;;;;;;;7.62;0.70;;;;;;;;;;4414268;32;20358;-78
2020/12/04 05:51:56;;;;;;;0.45;0.45;;;;;;;;;;4415131;32;20054;-77
2020/12/04 05:54:24;;;;;;;;;;;;;;;;;;4406716;32;20061;-76
2020/12/04 05:56:55;;;;;;;0.62;0.60;;;;;;;;;;4413615;32;19950;-77
2020/12/04 05:59:24;;;;;;;1.40;1.05;;;;;;;;;;4413774;32;20085;-77
2020/12/04 06:01:52;;;;;;;0.47;0.47;;;;;;;;;;4410005;32;20094;-77
2020/12/04 06:04:21;;;;;;;0.75;0.75;;;;;;;;;;4411679;32;20353;-77
2020/12/04 06:06:50;;;;;;;2.08;0.70;;;;;;;;;;4412822;32;20086;-77
2020/12/04 06:09:21;;;;;;;1.00;0.60;;;;;;;;;;4409990;32;20486;-77
2020/12/04 06:11:50;;;;;;;0.65;0.65;;;;;;;;;;4404447;32;20122;-76
2020/12/04 06:14:26;;;;;;;3.53;0.80;;;;;;;;;;4409215;32;20368;-77
2020/12/04 06:17:01;;;;;;;2.50;1.08;;;;;;;;;;4412213;32;20058;-77
2020/12/04 06:19:36;;;;;;;38.88;36.78;;;;;;;;;;4412866;32;20046;-76
2020/12/04 06:22:12;;;;;;;38.28;36.28;;;;;;;;;;4409971;32;20496;-77
2020/12/04 06:25:01;;;;;;;13.80;12.95;;;;;;;;;;4408318;32;20039;-77
2020/12/04 06:27:39;;;;;;;50.67;47.65;;;;;;;;;;4413857;32;20111;-76
2020/12/04 06:30:10;;;;;;;3.70;2.50;;;;;;;;;;4402774;32;20117;-78
2020/12/04 06:32:45;;;;;;;29.23;26.50;;;;;;;;;;4401973;32;20062;-78
2020/12/04 06:35:14;;;;;;;2.28;1.02;;;;;;;;;;4414450;32;20128;-78
2020/12/04 06:37:44;;;;;;;0.90;0.60;;;;;;;;;;4414136;32;20046;-77
2020/12/04 06:40:29;;;;;;;1.33;0.65;;;;;;;;;;4413796;32;20058;-76
2020/12/04 06:43:01;;;;;;;4.72;4.35;;;;;;;;;;4403968;32;20050;-76
2020/12/04 06:45:49;;;;;;;4.75;0.55;;;;;;;;;;4412649;32;20102;-77
2020/12/04 06:48:18;;;;;;;1.45;0.52;;;;;;;;;;4409311;32;20066;-78
2020/12/04 06:50:48;;;;;;;1.10;0.85;;;;;;;;;;4411157;32;20050;-77
2020/12/04 06:53:16;;;;;;;0.85;0.85;;;;;;;;;;4405945;32;20098;-78
2020/12/04 06:55:49;;;;;;;0.98;0.98;;;;;;;;;;4409690;32;20108;-77
2020/12/04 06:58:17;;;;;;;2.17;0.90;;;;;;;;;;4415993;32;20378;-77
2020/12/04 07:00:46;;;;;;;1.45;0.40;;;;;;;;;;4410709;32;20123;-78
2020/12/04 07:03:16;;;;;;;0.82;0.70;;;;;;;;;;4407835;32;20170;-77
2020/12/04 07:05:45;;;;;;;0.55;0.50;;;;;;;;;;4393287;32;21953;-77
2020/12/04 07:08:14;;;;;;;0.37;0.37;;;;;;;;;;4394112;32;20328;-78
2020/12/04 07:10:42;;;;;;;2.85;2.65;;;;;;;;;;4403918;32;20072;-77
2020/12/04 07:13:11;;;;;;;1.73;1.73;;;;;;;;;;4408674;32;20079;-78
2020/12/04 07:15:41;;;;;;;1.25;1.20;;;;;;;;;;4407936;32;20359;-77
2020/12/04 07:18:09;;;;;;;1.27;1.27;;;;;;;;;;4407851;32;20051;-77
2020/12/04 07:20:38;;;;;;;3.53;3.33;;;;;;;;;;4408324;32;20641;-75
2020/12/04 07:23:08;;;;;;;5.57;5.35;;;;;;;;;;4410143;32;20090;-78
2020/12/04 07:25:38;;;;;;;1.00;0.60;;;;;;;;;;4406877;32;20128;-78
2020/12/04 07:28:06;;;;;;;6.35;5.97;;;;;;;;;;4403233;32;20054;-77
2020/12/04 07:30:35;;;;;;;0.52;0.52;;;;;;;;;;4412610;32;20054;-76
2020/12/04 07:33:03;;;;;;;7.72;7.32;;;;;;;;;;4408055;32;20467;-77
2020/12/04 07:35:32;;;;;;;5.03;4.82;;;;;;;;;;4415577;32;20126;-78
2020/12/04 07:38:06;;;;;;;5.20;4.90;;;;;;;;;;4411859;32;20387;-76
2020/12/04 07:40:35;;;;;;;8.38;7.97;;;;;;;;;;4413496;32;20482;-77
2020/12/04 07:43:04;;;;;;;0.55;0.55;;;;;;;;;;4413672;32;20103;-77
2020/12/04 07:45:32;;;;;;;4.68;3.65;;;;;;;;;;4419700;32;20069;-78
2020/12/04 07:48:07;;;;;;;3.15;3.05;;;;;;;;;;4415592;32;20765;-77
2020/12/04 07:50:36;;;;;;;2.40;0.88;;;;;;;;;;4409857;32;20142;-78
2020/12/04 07:53:04;;;;;;;14.70;14.00;;;;;;;;;;4407769;32;20046;-79
2020/12/04 07:55:38;;;;;;;4.95;3.40;;;;;;;;;;4416427;32;20099;-78
2020/12/04 07:58:11;;;;;;;2.33;2.27;;;;;;;;;;4417497;32;20137;-77
2020/12/04 08:00:40;;;;;;;4.68;1.12;;;;;;;;;;4405063;32;20403;-78
2020/12/04 08:03:13;;;;;;;4.87;4.57;;;;;;;;;;4403279;32;20064;-79
2020/12/04 08:05:43;;;;;;;5.87;5.47;;;;;;;;;;4407565;32;20054;-77
2020/12/04 08:08:19;;;;;;;0.90;0.90;;;;;;;;;;4408065;32;20047;-78
2020/12/04 08:10:48;;;;;;;43.15;40.88;;;;;;;;;;4407706;32;20154;-78
2020/12/04 08:13:18;;;;;;;6.28;5.95;;;;;;;;;;4405051;32;20108;-76
2020/12/04 08:15:46;;;;;;;2.80;2.60;;;;;;;;;;4415751;32;20116;-75
2020/12/04 08:18:20;;;;;;;6.18;5.87;;;;;;;;;;4399523;32;20106;-77
2020/12/04 08:20:49;;;;;;;6.37;5.68;;;;;;;;;;4380541;32;20420;-76
2020/12/04 08:23:23;;;;;;;7.20;6.90;;;;;;;;;;4380699;32;20099;-76
2020/12/04 08:25:53;;;;;;;8.18;7.87;;;;;;;;;;4384217;32;20457;-76
2020/12/04 08:28:21;;;;;;;8.90;8.50;;;;;;;;;;4384938;32;20446;-76
2020/12/04 08:30:50;;;;;;;3.90;3.67;;;;;;;;;;4381452;32;20093;-77
2020/12/04 08:33:19;;;;;;;12.50;11.82;;;;;;;;;;4380601;32;20479;-76
2020/12/04 08:35:49;;;;;;;0.75;0.75;;;;;;;;;;4380150;32;20183;-77
2020/12/04 08:38:25;;;;;;;14.25;13.50;;;32.80;92.50;;;;;;4380787;32;20102;-77
2020/12/04 08:40:53;;;;;;;11.68;10.88;;;28.00;94.10;;;;;;4379844;32;21214;-77
2020/12/04 08:43:25;;;;;;;14.50;13.90;;;29.90;90.60;;;;;;4390549;32;20102;-76
2020/12/04 08:45:56;;;;;;;15.90;15.20;;;29.90;93.00;;;;;;4382460;32;20094;-77
2020/12/04 08:48:29;;;;;;;15.85;15.05;;;;;;;;;;4383964;32;20067;-78
2020/12/04 08:51:02;;;;;;;15.35;14.65;;;30.30;99.90;;;;;;4384010;32;20401;-76
2020/12/04 08:53:33;;;;;;;15.57;14.77;;;30.60;99.90;;;;;;4378329;32;20390;-76
2020/12/04 08:56:04;;;;;;;16.17;15.38;;;30.20;99.00;;;;;;4385348;32;20067;-77
2020/12/04 08:58:33;;;;;;;15.40;14.70;;;30.50;98.50;;;;;;4379746;32;20128;-77
2020/12/04 09:01:01;;;;;;;21.80;20.70;;;30.30;95.90;;;;;;4381633;32;20209;-78
2020/12/04 09:03:30;;;;;;;16.58;15.88;;;29.70;94.80;;;;;;4383162;32;20586;-78
2020/12/04 09:05:59;;;;;;;7.40;7.05;;;30.30;95.50;;;;;;4383555;32;20055;-77
2020/12/04 09:08:27;;;;;;;0.52;0.37;;;;;;;;;;4387081;32;20051;-76
2020/12/04 09:10:56;;;;;;;30.48;29.12;;;;;;;;;;4384127;32;20146;-77
2020/12/04 09:13:26;;;;;;;2.65;2.45;;;;;;;;;;4383007;32;20047;-76
2020/12/04 09:15:55;;;;;;;0.52;0.30;;;26.70;99.90;;;;;;4385072;32;20063;-76
2020/12/04 09:18:23;;;;;;;27.02;25.75;;;24.40;96.10;;;;;;4382652;32;20043;-78
2020/12/04 09:20:51;;;;;;;1.42;1.33;;;26.90;99.90;;;;;;4380635;32;20791;-78
2020/12/04 09:23:20;;;;;;;19.08;18.15;;;;;;;;;;4382362;32;20050;-77
2020/12/04 09:25:49;;;;;;;21.25;20.12;;;29.10;87.80;;;;;;4377510;32;20656;-77
2020/12/04 09:28:18;;;;;;;13.18;12.45;;;;;;;;;;4380828;32;20122;-76
2020/12/04 09:30:46;;;;;;;1.73;0.50;;;;;;;;;;4379333;32;20583;-77
2020/12/04 09:33:14;;;;;;;1.30;0.35;;;26.10;91.80;;;;;;4383092;32;20398;-76
2020/12/04 09:35:42;;;;;;;0.43;0.20;;;24.50;96.20;;;;;;4384308;32;20055;-77
2020/12/04 09:38:11;;;;;;;1.75;0.50;;;22.30;99.90;;;;;;4382306;32;20203;-76
2020/12/04 09:40:39;;;;;;;25.33;24.02;;;21.10;99.90;;;;;;4379887;32;20145;-77
2020/12/04 09:43:07;;;;;;;28.85;27.33;;;25.20;99.10;;;;;;4380895;32;20088;-76
2020/12/04 09:45:36;;;;;;;34.65;33.08;;;27.80;94.10;;;;;;4376789;32;20450;-77
2020/12/04 09:48:04;;;;;;;23.80;22.75;;;29.30;90.00;;;;;;4381969;32;20051;-77
2020/12/04 09:50:32;;;;;;;1.90;1.17;;;29.60;87.00;;;;;;4383589;32;20092;-78
2020/12/04 09:53:00;;;;;;;0.65;0.60;;;30.10;82.30;;;;;;4381380;32;20079;-76
2020/12/04 09:55:28;;;;;;;0.75;0.60;;;27.50;90.00;;;;;;4383225;32;20335;-77
2020/12/04 09:57:57;;;;;;;21.12;20.02;;;27.20;88.20;;;;;;4381677;32;20090;-76
2020/12/04 10:00:25;;;;;;;9.38;8.98;;;26.10;93.70;;;;;;4385325;32;20047;-76
2020/12/04 10:03:06;;;;;;;15.35;14.48;;;27.40;91.60;;;;;;4380393;32;20238;-76
2020/12/04 10:05:34;;;;;;;0.77;0.70;;;27.20;93.90;;;;;;4380922;32;20109;-76
2020/12/04 10:08:02;;;;;;;2.72;0.55;;;25.80;95.00;;;;;;4381891;32;20389;-76
2020/12/04 10:10:31;;;;;;;3.10;0.60;;;23.90;96.90;;;;;;4381192;32;20054;-76
2020/12/04 10:12:59;;;;;;;13.30;12.70;;;23.00;99.90;;;;;;4379557;32;20417;-76
2020/12/04 10:15:26;;;;;;;14.77;14.02;;;24.00;99.90;;;;;;4382561;32;20109;-77
2020/12/04 10:17:55;;;;;;;0.52;0.40;;;25.80;97.00;;;;;;4382635;32;20106;-76
2020/12/04 10:20:23;;;;;;;21.20;20.20;;;23.50;99.40;;;;;;4382472;32;20047;-77
2020/12/04 10:22:51;;;;;;;25.05;23.75;;;25.30;99.90;;;;;;4379688;32;20458;-77
2020/12/04 10:25:19;;;;;;;3.35;3.25;;;28.10;94.30;;;;;;4382559;32;20412;-77
2020/12/04 10:27:48;;;;;;;2.37;0.60;;;;;;;;;;4382488;32;20153;-76
2020/12/04 10:30:16;;;;;;;27.70;26.40;;;27.00;91.80;;;;;;4379317;32;20674;-76
2020/12/04 10:32:44;;;;;;;25.45;24.27;;;28.50;91.20;;;;;;4382133;32;20107;-78
2020/12/04 10:35:12;;;;;;;26.08;24.77;;;29.80;88.40;;;;;;4378985;32;20095;-76
2020/12/04 10:37:41;;;;;;;23.33;22.15;;;30.10;86.00;;;;;;4379225;32;20055;-77
2020/12/04 10:40:09;;;;;;;21.23;20.23;;;30.60;82.80;;;;;;4385861;32;20103;-78
2020/12/04 10:42:37;;;;;;;24.30;23.00;;;31.50;79.90;;;;;;4376914;32;20121;-77
2020/12/04 10:45:05;;;;;;;1.85;1.75;;;32.10;78.40;;;;;;4381323;32;20044;-79
2020/12/04 10:47:34;;;;;;;22.67;21.58;;;29.60;79.00;;;;;;4381995;32;20081;-76
2020/12/04 10:50:02;;;;;;;14.93;14.15;;;29.30;83.20;;;;;;4381565;32;20081;-77
2020/12/04 10:52:31;;;;;;;18.95;17.92;;;;;;;;;;4384485;32;20382;-77
2020/12/04 10:55:00;;;;;;;2.83;0.57;;;30.80;78.80;;;;;;4383609;32;20187;-76
2020/12/04 10:57:28;;;;;;;16.80;15.82;;;29.40;77.20;;;;;;4386626;32;20046;-77
2020/12/04 10:59:56;;;;;;;15.60;14.57;;;29.20;78.90;;;;;;4380545;32;20438;-77
2020/12/04 11:02:29;;;;;;;14.35;13.70;;;30.10;75.10;;;;;;4380884;32;20047;-78
2020/12/04 11:07:44;;;;;;;13.15;12.48;;;30.30;73.10;;;;;;4381466;32;20085;-76
2020/12/04 11:10:13;;;;;;;11.18;10.68;;;30.00;73.40;;;;;;4382276;32;20104;-77
2020/12/04 11:12:41;;;;;;;10.45;10.05;;;30.90;69.70;;;;;;4381662;32;20062;-77
2020/12/04 11:15:10;;;;;;;11.10;10.55;;;30.70;70.90;;;;;;4380107;32;20137;-76
2020/12/04 11:17:39;;;;;;;12.35;11.55;;;31.30;69.10;;;;;;4382179;32;20054;-77
2020/12/04 11:20:07;;;;;;;1.40;1.20;;;32.60;88.00;;;;;;4372046;32;20083;-77
2020/12/04 11:22:37;;;;;;;2.40;2.30;;;30.90;63.80;;;;;;4377222;32;20506;-76
2020/12/04 11:25:05;;;;;;;6.78;6.53;;;29.90;69.90;;;;;;4383184;32;20047;-76
2020/12/04 11:27:33;;;;;;;9.65;9.25;;;30.60;70.00;;;;;;4382312;32;20051;-76
2020/12/04 11:30:02;;;;;;;1.92;0.82;;;32.50;69.00;;;;;;4383713;32;20050;-77
2020/12/04 11:32:33;;;;;;;4.78;4.47;;;29.70;71.20;;;;;;4385546;32;20062;-77
2020/12/04 11:35:02;;;;;;;8.35;7.87;;;30.10;67.90;;;;;;4384399;32;20374;-78
2020/12/04 11:37:30;;;;;;;1.77;1.42;;;30.50;69.00;;;;;;4383043;32;20070;-77
2020/12/04 11:39:58;;;;;;;0.85;0.60;;;30.10;70.60;;;;;;4378301;32;20094;-76
2020/12/04 11:42:27;;;;;;;0.90;0.70;;;27.20;82.30;;;;;;4379293;32;20149;-76
2020/12/04 11:44:56;;;;;;;2.08;0.73;;;25.40;90.40;;;;;;4379412;32;20100;-75
2020/12/04 11:47:27;;;;;;;1.75;1.65;;;24.10;94.10;;;;;;4383226;32;20090;-76
2020/12/04 11:49:56;;;;;;;4.65;4.37;;;26.00;91.60;;;;;;4384900;32;20118;-78
2020/12/04 11:52:24;;;;;;;2.72;0.98;;;28.50;84.00;;;;;;4379795;32;20116;-77
2020/12/04 11:54:52;;;;;;;3.30;0.70;;;26.00;88.80;;;;;;4385243;32;20096;-77
2020/12/04 11:57:20;;;;;;;1.98;0.70;;;25.00;92.80;;;;;;4382186;32;20121;-76
2020/12/04 11:59:49;;;;;;;7.57;7.18;;;23.30;96.30;;;;;;4378409;32;21404;-76
2020/12/04 12:02:18;;;;;;;3.35;0.95;;;25.50;95.00;;;;;;4382775;32;20195;-78
2020/12/04 12:04:46;;;;;;;3.33;2.87;;;26.40;90.80;;;;;;4384480;32;20048;-75
2020/12/04 12:07:15;;;;;;;2.08;0.70;;;25.30;93.50;;;;;;4383103;32;20255;-76
2020/12/04 12:09:43;;;;;;;3.55;2.00;;;24.10;94.60;;;;;;4377562;32;20101;-77
2020/12/04 12:12:11;;;;;;;0.77;0.60;;;24.90;95.20;;;;;;4381727;32;20052;-76
2020/12/04 12:14:39;;;;;;;0.70;0.70;;;25.70;92.10;;;;;;4381828;32;20467;-77
2020/12/04 12:17:16;;;;;;;1.55;0.80;;;;;;;;;;4385574;32;20377;-77
2020/12/04 12:19:47;;;;;;;1.42;0.80;;;24.30;97.00;;;;;;4382146;32;20118;-77
2020/12/04 12:22:15;;;;;;;1.35;0.65;;;24.00;96.20;;;;;;4382505;32;20063;-77
2020/12/04 12:24:45;;;;;;;1.40;0.65;;;24.20;95.30;;;;;;4380612;32;20173;-77
2020/12/04 12:27:14;;;;;;;2.87;2.40;;;23.00;97.70;;;;;;4382082;32;20083;-77
2020/12/04 12:29:42;;;;;;;3.30;2.37;;;24.10;97.50;;;;;;4381860;32;20536;-77
2020/12/04 12:32:10;;;;;;;2.87;1.12;;;24.90;95.90;;;;;;4385110;32;20081;-77
2020/12/04 12:37:27;;;;;;;2.90;0.90;;;23.70;97.60;;;;;;4382728;32;20394;-77
2020/12/04 12:39:56;;;;;;;2.72;0.77;;;22.80;99.70;;;;;;4378370;32;20491;-75
2020/12/04 12:42:24;;;;;;;4.85;0.82;;;22.20;99.90;;;;;;4383925;32;20091;-76
2020/12/04 12:44:52;;;;;;;4.10;1.60;;;22.00;99.90;;;;;;4380187;32;20101;-77
2020/12/04 12:47:21;;;;;;;7.90;1.20;;;22.00;99.90;;;;;;4381823;32;20054;-76
2020/12/04 12:49:49;;;;;;;4.70;1.20;;;22.00;99.90;;;;;;4378675;32;20100;-77
2020/12/04 12:52:17;;;;;;;8.40;1.77;;;21.60;99.90;;;;;;4383533;32;20083;-76
2020/12/04 12:54:45;;;;;;;6.80;1.55;;;21.40;99.90;;;;;;4381231;32;20564;-75
2020/12/04 12:57:14;;;;;;;1.90;0.80;;;22.20;99.90;;;;;;4383262;32;20048;-75
2020/12/04 12:59:42;;;;;;;6.57;2.12;;;21.80;99.90;;;;;;4378381;32;20114;-76
2020/12/04 13:02:10;;;;;;;4.62;1.12;;;21.80;99.90;;;;;;4381980;32;20047;-77
2020/12/04 13:04:38;;;;;;;7.47;1.12;;;22.00;99.90;;;;;;4383384;32;20065;-76
2020/12/04 13:07:07;;;;;;;13.18;1.77;;;22.20;99.90;;;;;;4383398;32;20096;-77
2020/12/04 13:09:35;;;;;;;4.28;1.90;;;21.70;99.90;;;;;;4381126;32;20406;-75
2020/12/04 13:12:03;;;;;;;8.88;1.05;;;22.10;99.90;;;;;;4384118;32;20089;-77
2020/12/04 13:14:31;;;;;;;6.07;1.50;;;21.70;99.90;;;;;;4383378;32;20116;-75
2020/12/04 13:17:00;;;;;;;4.03;0.80;;;21.90;99.90;;;;;;4380856;32;20077;-76
2020/12/04 13:19:28;;;;;;;3.78;1.25;;;21.60;99.90;;;;;;4382325;32;20373;-76
2020/12/04 13:22:02;;;;;;;6.93;1.30;;;21.40;99.90;;;;;;4380856;32;20472;-77
2020/12/04 13:24:33;;;;;;;7.18;1.23;;;21.20;99.90;;;;;;4380744;32;20111;-77
2020/12/04 13:27:06;;;;;;;9.57;1.20;;;;;;;;;;4379738;32;20124;-76
2020/12/04 13:29:38;;;;;;;2.80;1.20;;;;;;;;;;4393762;32;20108;-77
2020/12/04 13:32:06;;;;;;;11.90;1.65;;;;;;;;;;4378531;32;20086;-77
2020/12/04 13:34:38;;;;;;;4.30;1.20;;;;;;;;;;4396565;32;20081;-75
2020/12/04 13:37:07;;;;;;;6.22;1.75;;;21.70;99.90;;;;;;4380005;32;20102;-76
2020/12/04 13:39:35;;;;;;;3.90;1.30;;;21.80;99.90;;;;;;4378465;32;20047;-76
2020/12/04 13:42:03;;;;;;;4.50;1.27;;;21.80;99.90;;;;;;4381950;32;20118;-76
2020/12/04 13:44:32;;;;;;;6.43;1.60;;;;;;;;;;4380888;32;20069;-77
2020/12/04 13:47:01;;;;;;;4.97;1.17;;;;;;;;;;4382050;32;20100;-77
2020/12/04 13:49:29;;;;;;;5.20;1.23;;;;;;;;;;4376483;32;20432;-77
2020/12/04 13:51:59;;;;;;;7.10;1.30;;;;;;;;;;4381806;32;20402;-76
2020/12/04 13:54:27;;;;;;;3.92;1.52;;;20.80;99.90;;;;;;4382269;32;20073;-77
2020/12/04 13:56:58;;;;;;;3.60;1.20;;;;;;;;;;4385043;32;20059;-78
2020/12/04 13:59:27;;;;;;;6.32;1.23;;;;;;;;;;4377654;32;20063;-78
2020/12/04 14:01:56;;;;;;;6.18;1.10;;;;;;;;;;4380540;32;20148;-78
2020/12/04 14:04:25;;;;;;;2.30;0.70;;;;;;;;;;4374620;32;20063;-78
2020/12/04 14:06:53;;;;;;;6.80;1.33;;;;;;;;;;4378182;32;20130;-79
2020/12/04 14:09:22;;;;;;;3.75;0.85;;;;;;;;;;4380489;32;20139;-79
2020/12/04 14:11:51;;;;;;;3.20;1.15;;;;;;;;;;4382065;32;20059;-77
2020/12/04 14:14:20;;;;;;;7.45;1.50;;;;;;;;;;4375841;32;20102;-78
2020/12/04 14:16:48;;;;;;;9.73;1.70;;;;;;;;;;4382484;32;20106;-79
2020/12/04 14:19:19;;;;;;;5.55;1.33;;;;;;;;;;4381957;32;20758;-78